Terminal Aerodrome Forecast
Issued by NWS

Home | Current Version | Previous Version | Text Only | Print | Product List | Glossary On
Versions: 1 2 3 4 5 6 7 8 9 10 11 12 13 14 15 16 17 18 19 20 21 22 23 24 25 26 27 28 29 30 31 32 33 34 35 36 37 38 39 40 41 42 43 44 45 46 47 48 49 50
000
FTUS45 KGJT 172210 AAB
TAFCNY
TAF AMD
KCNY 172210Z 1722/1818 33008KT P6SM VCFG BKN030 OVC060
     FM172300 08006KT 4SM -RA BKN015 OVC025 WS020/20030KT
     FM180000 16008KT 1 1/2SM -RA BKN020 OVC030 WS020/20035KT
     FM180800 26010KT 1 1/2SM -RASN BKN008 OVC030
     FM181100 29014KT 2SM -SNRA SCT030 BKN040
     FM181400 30014KT P6SM SCT035 BKN045=

USA.gov is the U.S. government's official web portal to all federal, state and local government web resources and services.